createdAt,value
2017-03-11T06:44:48.233Z,1023.04
2017-03-11T06:45:48.261Z,1023.12
2017-03-11T06:46:48.289Z,1023.09
2017-03-11T06:47:48.310Z,1023.09
2017-03-11T06:48:48.340Z,1023.13
2017-03-11T06:49:48.365Z,1023.17
2017-03-11T06:50:48.385Z,1023.21
2017-03-11T06:51:48.415Z,1023.22
2017-03-11T06:52:48.444Z,1023.18
2017-03-11T06:53:48.473Z,1023.22
2017-03-11T06:54:48.500Z,1023.17
2017-03-11T06:55:48.524Z,1023.22
2017-03-11T06:56:48.552Z,1023.29
2017-03-11T06:57:48.578Z,1023.27
2017-03-11T06:58:48.606Z,1023.28
2017-03-11T06:59:48.630Z,1023.28
2017-03-11T07:00:48.656Z,1023.32
2017-03-11T07:01:48.687Z,1023.23
2017-03-11T07:02:48.704Z,1023.29
2017-03-11T07:03:48.737Z,1023.25
2017-03-11T07:04:48.763Z,1023.2
2017-03-11T07:05:48.794Z,1023.23
2017-03-11T07:06:48.815Z,1023.13
2017-03-11T07:07:48.846Z,1023.12
2017-03-11T07:08:48.871Z,1023.06
2017-03-11T07:09:48.903Z,1023.11
2017-03-11T07:10:48.927Z,1023.12
2017-03-11T07:11:48.953Z,1023.14
2017-03-11T07:12:48.977Z,1023.19
2017-03-11T07:13:49.008Z,1023.23
2017-03-11T07:14:49.036Z,1023.23
2017-03-11T07:15:49.063Z,1023.28
2017-03-11T07:16:49.092Z,1023.25
2017-03-11T07:17:49.116Z,1023.22
2017-03-11T07:18:49.141Z,1023.26
2017-03-11T07:19:49.169Z,1023.23
2017-03-11T07:20:49.194Z,1023.23
2017-03-11T07:21:49.224Z,1023.23
2017-03-11T07:22:49.250Z,1023.22
2017-03-11T07:23:49.280Z,1023.13
2017-03-11T07:24:49.311Z,1023.15
2017-03-11T07:25:49.421Z,1023.18
2017-03-11T07:26:49.361Z,1023.17
2017-03-11T07:27:49.387Z,1023.19
2017-03-11T07:28:49.419Z,1023.19
2017-03-11T07:29:49.442Z,1023.17
2017-03-11T07:30:49.469Z,1023.13
2017-03-11T07:31:49.496Z,1023.13
2017-03-11T07:32:49.535Z,1023.09
2017-03-11T07:33:49.558Z,1023.08
2017-03-11T07:34:49.575Z,1023.08
2017-03-11T07:35:49.614Z,1023.1
2017-03-11T07:36:49.636Z,1023.12
2017-03-11T07:37:49.678Z,1023.11
2017-03-11T07:38:49.684Z,1023.1
2017-03-11T07:39:49.728Z,1023.13
2017-03-11T07:40:49.765Z,1023.12
2017-03-11T07:41:49.776Z,1023.11
2017-03-11T07:42:49.800Z,1023.03
2017-03-11T07:43:49.837Z,1023.05
2017-03-11T07:44:49.861Z,1023.05
2017-03-11T07:45:49.898Z,1023.01
2017-03-11T07:46:49.901Z,1022.99
2017-03-11T07:47:49.944Z,1022.97
2017-03-11T07:48:49.971Z,1022.96
2017-03-11T07:49:50.013Z,1022.98
2017-03-11T07:50:50.047Z,1022.95
2017-03-11T07:51:50.071Z,1022.98
2017-03-11T07:52:50.085Z,1022.95
2017-03-11T07:53:50.117Z,1022.99
2017-03-11T07:54:50.147Z,1023.04
2017-03-11T07:55:50.163Z,1023.04
2017-03-11T07:56:50.201Z,1023.04
2017-03-11T07:57:50.241Z,1023.11
2017-03-11T07:58:50.243Z,1023.07
2017-03-11T07:59:50.273Z,1023.06
2017-03-11T08:00:50.313Z,1023.05
2017-03-11T08:01:50.355Z,1023.04
2017-03-11T08:02:50.373Z,1023.07
2017-03-11T08:03:50.398Z,1023.03
2017-03-11T08:04:50.422Z,1023.07
2017-03-11T08:05:50.443Z,1023.09
2017-03-11T08:06:50.482Z,1023.07
2017-03-11T08:07:50.511Z,1023.01
2017-03-11T08:08:50.538Z,1023.06
2017-03-11T08:09:50.566Z,1023.05
2017-03-11T08:10:50.596Z,1023.05
2017-03-11T08:11:50.620Z,1023.07
2017-03-11T08:12:50.651Z,1023.09
2017-03-11T08:13:50.681Z,1023.07
2017-03-11T08:14:50.706Z,1023.12
2017-03-11T08:15:50.836Z,1023.17
2017-03-11T08:16:50.763Z,1023.16
2017-03-11T08:17:50.793Z,1023.16
2017-03-11T08:18:50.820Z,1023.18
2017-03-11T08:19:50.851Z,1023.18
2017-03-11T08:20:50.879Z,1023.17
2017-03-11T08:21:50.904Z,1023.2
2017-03-11T08:22:50.937Z,1023.17
2017-03-11T08:23:50.965Z,1023.21
2017-03-11T08:24:50.994Z,1023.25
2017-03-11T08:25:51.020Z,1023.28
2017-03-11T08:26:51.054Z,1023.33
2017-03-11T08:27:51.079Z,1023.34
2017-03-11T08:28:51.107Z,1023.28
2017-03-11T08:29:51.137Z,1023.29
2017-03-11T08:30:51.167Z,1023.32
2017-03-11T08:31:51.191Z,1023.31
2017-03-11T08:32:51.218Z,1023.35
2017-03-11T08:33:51.252Z,1023.35
2017-03-11T08:34:51.282Z,1023.36
2017-03-11T08:35:51.306Z,1023.37
2017-03-11T08:36:51.334Z,1023.36
2017-03-11T08:37:51.367Z,1023.34
2017-03-11T08:38:51.394Z,1023.28
2017-03-11T08:39:51.421Z,1023.24
2017-03-11T08:40:51.452Z,1023.26
2017-03-11T08:41:51.478Z,1023.21
2017-03-11T08:42:51.510Z,1023.23
2017-03-11T08:43:51.539Z,1023.27
2017-03-11T08:44:51.567Z,1023.24
2017-03-11T08:45:51.598Z,1023.23
2017-03-11T08:46:51.630Z,1023.23
2017-03-11T08:47:51.654Z,1023.2
2017-03-11T08:48:51.670Z,1023.18
2017-03-11T08:49:51.710Z,1023.18
2017-03-11T08:50:51.740Z,1023.23
2017-03-11T08:51:51.767Z,1023.24
2017-03-11T08:52:51.795Z,1023.2
2017-03-11T08:53:51.828Z,1023.24
2017-03-11T08:54:51.855Z,1023.21
2017-03-11T08:55:51.887Z,1023.21
2017-03-11T08:56:51.913Z,1023.19
2017-03-11T08:57:51.944Z,1023.21
2017-03-11T08:58:51.971Z,1023.21
2017-03-11T08:59:51.999Z,1023.18
2017-03-11T09:00:52.031Z,1023.21
2017-03-11T09:01:52.059Z,1023.24
2017-03-11T09:02:52.086Z,1023.28
2017-03-11T09:03:52.113Z,1023.22
2017-03-11T09:04:52.143Z,1023.23
2017-03-11T09:05:52.173Z,1023.25
2017-03-11T09:06:52.352Z,1023.25
2017-03-11T09:07:52.230Z,1023.26
2017-03-11T09:08:52.256Z,1023.31
2017-03-11T09:09:52.291Z,1023.31
2017-03-11T09:10:52.316Z,1023.33
2017-03-11T09:11:52.342Z,1023.31
2017-03-11T09:12:52.371Z,1023.37
2017-03-11T09:13:52.400Z,1023.33
2017-03-11T09:14:52.431Z,1023.35
2017-03-11T09:15:52.458Z,1023.34
2017-03-11T09:16:52.491Z,1023.4
2017-03-11T09:17:52.516Z,1023.29
2017-03-11T09:18:52.545Z,1023.34
2017-03-11T09:19:52.577Z,1023.36
2017-03-11T09:20:52.593Z,1023.39
2017-03-11T09:21:52.632Z,1023.38
2017-03-11T09:22:52.664Z,1023.42
2017-03-11T09:23:52.697Z,1023.39
2017-03-11T09:24:52.722Z,1023.41
2017-03-11T09:25:52.751Z,1023.37
2017-03-11T09:26:52.781Z,1023.34
2017-03-11T09:27:52.810Z,1023.34
2017-03-11T09:28:52.840Z,1023.28
2017-03-11T09:29:52.865Z,1023.27
2017-03-11T09:30:52.897Z,1023.29
2017-03-11T09:31:52.929Z,1023.29
2017-03-11T09:32:52.958Z,1023.25
2017-03-11T09:33:52.992Z,1023.24
2017-03-11T09:34:53.017Z,1023.25
2017-03-11T09:35:53.051Z,1023.3
2017-03-11T09:36:53.078Z,1023.33
2017-03-11T09:37:53.110Z,1023.29
2017-03-11T09:38:53.140Z,1023.28
2017-03-11T09:39:53.173Z,1023.26
2017-03-11T09:40:53.205Z,1023.27
2017-03-11T09:41:53.233Z,1023.23
2017-03-11T09:42:53.264Z,1023.24
2017-03-11T09:43:53.297Z,1023.21
2017-03-11T09:44:53.327Z,1023.27
2017-03-11T09:45:53.355Z,1023.26
2017-03-11T09:46:53.391Z,1023.28
2017-03-11T09:47:53.418Z,1023.28
2017-03-11T09:48:53.449Z,1023.29
2017-03-11T09:49:53.481Z,1023.25
2017-03-11T09:50:53.501Z,1023.23
2017-03-11T09:51:53.544Z,1023.22
2017-03-11T09:52:53.574Z,1023.26
2017-03-11T09:53:53.648Z,1023.27
2017-03-11T09:54:53.639Z,1023.24
2017-03-11T09:55:53.697Z,1023.25
2017-03-11T09:56:53.705Z,1023.24
2017-03-11T09:57:53.733Z,1023.22
2017-03-11T09:58:53.761Z,1023.15
2017-03-11T09:59:53.794Z,1023.16
2017-03-11T10:00:53.810Z,1023.18
2017-03-11T10:01:53.856Z,1023.17
2017-03-11T10:02:53.888Z,1023.12
2017-03-11T10:03:53.925Z,1023.13
2017-03-11T10:04:53.949Z,1023.09
2017-03-11T10:05:54.008Z,1023.11
2017-03-11T10:06:54.013Z,1023.08
2017-03-11T10:07:54.046Z,1023.14
2017-03-11T10:08:54.075Z,1023.12
2017-03-11T10:09:54.113Z,1023.11
2017-03-11T10:10:54.142Z,1023.12
2017-03-11T10:11:54.171Z,1023.11
2017-03-11T10:12:54.203Z,1023.09
2017-03-11T10:13:54.235Z,1023.09
2017-03-11T10:14:54.265Z,1023.11
2017-03-11T10:15:54.298Z,1023.08
2017-03-11T10:16:54.329Z,1023.06
2017-03-11T10:17:54.361Z,1023.02
2017-03-11T10:18:54.393Z,1023.03
2017-03-11T10:19:54.427Z,1023.07
2017-03-11T10:20:54.456Z,1023.05
2017-03-11T10:21:54.485Z,1023.02
2017-03-11T10:22:54.520Z,1023.03
2017-03-11T10:23:54.542Z,1023
2017-03-11T10:24:54.581Z,1023.01
2017-03-11T10:25:54.610Z,1023
2017-03-11T10:26:54.643Z,1023.01
2017-03-11T10:27:54.675Z,1023.03
2017-03-11T10:28:54.692Z,1023.03
2017-03-11T10:29:54.735Z,1023.02
2017-03-11T10:30:54.768Z,1023.03
2017-03-11T10:31:54.796Z,1023.09
2017-03-11T10:32:54.833Z,1023.02
2017-03-11T10:33:54.858Z,1023.05
2017-03-11T10:34:54.888Z,1023.06
2017-03-11T10:35:54.925Z,1023.04
2017-03-11T10:36:54.955Z,1023.03
2017-03-11T10:37:54.985Z,1023.04
2017-03-11T10:38:55.015Z,1022.97
2017-03-11T10:39:55.049Z,1023
2017-03-11T10:40:55.076Z,1022.95
2017-03-11T10:41:55.109Z,1022.96
2017-03-11T10:42:55.137Z,1023.01
2017-03-11T10:43:55.170Z,1023.03
2017-03-11T10:44:55.199Z,1022.97
2017-03-11T10:45:55.235Z,1022.95
2017-03-11T10:46:55.261Z,1022.98
2017-03-11T10:47:55.290Z,1023
2017-03-11T10:48:55.323Z,1022.97
2017-03-11T10:49:55.356Z,1023.01
2017-03-11T10:50:55.382Z,1023
2017-03-11T10:51:55.418Z,1023.03
2017-03-11T10:52:55.445Z,1023.01
2017-03-11T10:53:55.480Z,1023.02
2017-03-11T10:54:55.508Z,1023.09
2017-03-11T10:55:55.543Z,1023.06
2017-03-11T10:56:55.572Z,1023.04
2017-03-11T10:57:55.598Z,1023.06
2017-03-11T10:58:55.634Z,1023.05
2017-03-11T10:59:55.665Z,1023.1
2017-03-11T11:00:55.693Z,1023.08
2017-03-11T11:01:55.725Z,1023.12
2017-03-11T11:02:55.757Z,1023.1
2017-03-11T11:03:55.785Z,1023.14
2017-03-11T11:04:55.815Z,1023.14
2017-03-11T11:05:55.848Z,1023.16
2017-03-11T11:06:55.882Z,1023.15
2017-03-11T11:07:55.913Z,1023.16
2017-03-11T11:08:55.943Z,1023.18
2017-03-11T11:09:55.972Z,1023.15
2017-03-11T11:10:56.009Z,1023.19
2017-03-11T11:11:56.035Z,1023.13
2017-03-11T11:12:56.068Z,1023.07
2017-03-11T11:13:56.094Z,1023.1
2017-03-11T11:14:56.127Z,1023.12
2017-03-11T11:15:56.155Z,1023.04
2017-03-11T11:16:56.192Z,1023.05
2017-03-11T11:17:56.221Z,1023.06
2017-03-11T11:18:56.255Z,1023
2017-03-11T11:19:56.284Z,1023.02
2017-03-11T11:20:56.312Z,1022.99
2017-03-11T11:21:56.350Z,1023.02
2017-03-11T11:22:56.368Z,1023.02
2017-03-11T11:23:56.409Z,1023.04
2017-03-11T11:24:56.441Z,1023.02
2017-03-11T11:25:56.474Z,1023.03
2017-03-11T11:26:56.530Z,1022.89
2017-03-11T11:27:56.557Z,1022.97
2017-03-11T11:28:56.568Z,1022.88
2017-03-11T11:29:56.597Z,1022.88
2017-03-11T11:30:56.615Z,1022.91
2017-03-11T11:31:56.706Z,1022.87
2017-03-11T11:32:56.692Z,1022.88
2017-03-11T11:33:56.723Z,1022.94
2017-03-11T11:34:56.753Z,1022.89
2017-03-11T11:35:56.784Z,1022.87
2017-03-11T11:36:56.818Z,1022.86
2017-03-11T11:37:56.848Z,1022.83
2017-03-11T11:38:56.879Z,1022.81
2017-03-11T11:39:56.912Z,1022.84
2017-03-11T11:40:56.947Z,1022.84
2017-03-11T11:41:56.978Z,1022.81
2017-03-11T11:42:57.007Z,1022.84
2017-03-11T11:43:57.041Z,1022.79
2017-03-11T11:44:57.072Z,1022.71
2017-03-11T11:45:57.105Z,1022.71
2017-03-11T11:46:57.135Z,1022.68
2017-03-11T11:47:57.169Z,1022.65
2017-03-11T11:48:57.231Z,1022.61
2017-03-11T11:49:57.234Z,1022.62
2017-03-11T11:50:57.264Z,1022.61
2017-03-11T11:51:57.295Z,1022.58
2017-03-11T11:52:57.323Z,1022.57
2017-03-11T11:53:57.357Z,1022.5
2017-03-11T11:54:57.390Z,1022.49
2017-03-11T11:55:57.421Z,1022.48
2017-03-11T11:56:57.453Z,1022.47
2017-03-11T11:57:57.482Z,1022.43
2017-03-11T11:58:57.518Z,1022.39
2017-03-11T11:59:57.550Z,1022.39
2017-03-11T12:00:57.579Z,1022.37
2017-03-11T12:01:57.610Z,1022.41
2017-03-11T12:02:57.646Z,1022.44
2017-03-11T12:03:57.675Z,1022.47
2017-03-11T12:04:57.708Z,1022.45
2017-03-11T12:05:57.788Z,1022.45
2017-03-11T12:06:57.775Z,1022.47
2017-03-11T12:07:57.802Z,1022.49
2017-03-11T12:08:57.900Z,1022.49
2017-03-11T12:09:57.864Z,1022.52
2017-03-11T12:10:57.904Z,1022.51
2017-03-11T12:11:57.969Z,1022.49
2017-03-11T12:12:58.003Z,1022.45
2017-03-11T12:13:57.995Z,1022.47
2017-03-11T12:14:58.030Z,1022.47
2017-03-11T12:15:58.058Z,1022.44
2017-03-11T12:16:58.095Z,1022.4
2017-03-11T12:17:58.122Z,1022.46
2017-03-11T12:18:58.181Z,1022.38
2017-03-11T12:19:58.191Z,1022.35
2017-03-11T12:20:58.229Z,1022.36
2017-03-11T12:21:58.253Z,1022.35
2017-03-11T12:22:58.284Z,1022.35
2017-03-11T12:23:58.316Z,1022.3
2017-03-11T12:24:58.349Z,1022.27
2017-03-11T12:25:58.387Z,1022.33
2017-03-11T12:26:58.415Z,1022.35
2017-03-11T12:27:58.444Z,1022.31
2017-03-11T12:28:58.466Z,1022.3
2017-03-11T12:29:58.493Z,1022.33
2017-03-11T12:30:58.540Z,1022.28
2017-03-11T12:31:58.575Z,1022.33
2017-03-11T12:32:58.606Z,1022.25
2017-03-11T12:33:58.638Z,1022.21
2017-03-11T12:34:58.668Z,1022.19
2017-03-11T12:35:58.700Z,1022.22
2017-03-11T12:36:58.734Z,1022.21
2017-03-11T12:37:58.767Z,1022.22
2017-03-11T12:38:58.835Z,1022.18
2017-03-11T12:39:58.829Z,1022.21
2017-03-11T12:40:58.859Z,1022.11
2017-03-11T12:41:58.893Z,1022.13
2017-03-11T12:42:58.925Z,1022.15
2017-03-11T12:43:58.960Z,1022.11
2017-03-11T12:44:58.987Z,1022.08
2017-03-11T12:45:59.023Z,1022.11
2017-03-11T12:46:59.051Z,1022.15
2017-03-11T12:47:59.088Z,1022.14
2017-03-11T12:48:59.117Z,1022.11
2017-03-11T12:49:59.148Z,1022.12
2017-03-11T12:50:59.182Z,1022.1
2017-03-11T12:51:59.214Z,1022.07
2017-03-11T12:52:59.244Z,1022.12
2017-03-11T12:53:59.274Z,1022.07
2017-03-11T12:54:59.295Z,1022.08
2017-03-11T12:55:59.338Z,1022.07
2017-03-11T12:56:59.370Z,1022.04
2017-03-11T12:57:59.399Z,1021.99
2017-03-11T12:58:59.432Z,1022.01
2017-03-11T12:59:59.467Z,1021.98
2017-03-11T13:00:59.500Z,1022
2017-03-11T13:01:59.527Z,1022.03
2017-03-11T13:02:59.563Z,1022.02
2017-03-11T13:03:59.593Z,1022.01
2017-03-11T13:04:59.627Z,1022.02
2017-03-11T13:05:59.670Z,1022.04
2017-03-11T13:06:59.687Z,1022.01
2017-03-11T13:07:59.718Z,1022.1
2017-03-11T13:08:59.749Z,1022.07
2017-03-11T13:09:59.784Z,1022.08
2017-03-11T13:10:59.813Z,1022.04
2017-03-11T13:11:59.842Z,1022.06
2017-03-11T13:12:59.873Z,1022.05
2017-03-11T13:13:59.895Z,1022.03
2017-03-11T13:14:59.936Z,1021.99
2017-03-11T13:15:59.968Z,1022
2017-03-11T13:16:59.999Z,1022.01
2017-03-11T13:18:00.032Z,1021.98
2017-03-11T13:19:00.061Z,1021.99
2017-03-11T13:20:00.095Z,1021.97
2017-03-11T13:21:00.155Z,1021.98
2017-03-11T13:22:00.157Z,1022.03
2017-03-11T13:23:00.196Z,1021.97
2017-03-11T13:24:00.235Z,1021.91
2017-03-11T13:25:00.276Z,1021.9
2017-03-11T13:26:00.308Z,1021.92
2017-03-11T13:27:00.319Z,1021.87
2017-03-11T13:28:00.346Z,1021.93
2017-03-11T13:29:00.377Z,1021.9
2017-03-11T13:30:00.410Z,1021.91
2017-03-11T13:31:00.440Z,1021.94
2017-03-11T13:32:00.469Z,1021.9
2017-03-11T13:33:00.501Z,1021.91
2017-03-11T13:34:00.514Z,1021.87
2017-03-11T13:35:00.566Z,1021.87
2017-03-11T13:36:00.595Z,1021.85
2017-03-11T13:37:00.624Z,1021.88
2017-03-11T13:38:00.657Z,1021.8
2017-03-11T13:39:00.684Z,1021.81
2017-03-11T13:40:00.705Z,1021.81
2017-03-11T13:41:00.753Z,1021.81
2017-03-11T13:42:00.778Z,1021.81
2017-03-11T13:43:00.807Z,1021.8
2017-03-11T13:44:00.842Z,1021.81
2017-03-11T13:45:00.872Z,1021.79
2017-03-11T13:46:00.905Z,1021.78
2017-03-11T13:47:00.928Z,1021.76
2017-03-11T13:48:00.997Z,1021.72
2017-03-11T13:49:00.992Z,1021.72
2017-03-11T13:50:01.025Z,1021.78
2017-03-11T13:51:01.054Z,1021.76
2017-03-11T13:52:01.077Z,1021.74
2017-03-11T13:53:01.116Z,1021.71
2017-03-11T13:54:01.146Z,1021.76
2017-03-11T13:55:01.175Z,1021.77
2017-03-11T13:56:01.223Z,1021.75
2017-03-11T13:57:01.243Z,1021.76
2017-03-11T13:58:01.269Z,1021.69
2017-03-11T13:59:01.297Z,1021.7
2017-03-11T14:00:01.314Z,1021.69
2017-03-11T14:01:01.360Z,1021.61
2017-03-11T14:02:01.388Z,1021.59
2017-03-11T14:03:01.419Z,1021.64
2017-03-11T14:04:01.450Z,1021.61
2017-03-11T14:05:01.483Z,1021.62
2017-03-11T14:06:01.511Z,1021.62
2017-03-11T14:07:01.541Z,1021.66
2017-03-11T14:08:01.572Z,1021.64
2017-03-11T14:09:01.604Z,1021.64
2017-03-11T14:10:01.632Z,1021.68
2017-03-11T14:11:01.660Z,1021.66
2017-03-11T14:12:01.694Z,1021.72
2017-03-11T14:13:01.723Z,1021.75
2017-03-11T14:14:01.753Z,1021.73
2017-03-11T14:15:01.786Z,1021.67
2017-03-11T14:16:01.963Z,1021.71
2017-03-11T14:17:01.844Z,1021.66
2017-03-11T14:18:01.875Z,1021.66
2017-03-11T14:19:01.908Z,1021.66
2017-03-11T14:20:01.932Z,1021.69
2017-03-11T14:21:01.964Z,1021.68
2017-03-11T14:22:01.992Z,1021.7
2017-03-11T14:23:02.014Z,1021.66
2017-03-11T14:24:02.055Z,1021.57
2017-03-11T14:25:02.086Z,1021.6
2017-03-11T14:26:02.114Z,1021.58
2017-03-11T14:27:02.155Z,1021.59
2017-03-11T14:28:02.178Z,1021.59
2017-03-11T14:29:02.215Z,1021.6
2017-03-11T14:30:02.240Z,1021.5
2017-03-11T14:31:02.270Z,1021.54
2017-03-11T14:32:02.299Z,1021.49
2017-03-11T14:33:02.329Z,1021.48
2017-03-11T14:34:02.358Z,1021.51
2017-03-11T14:35:02.390Z,1021.49
2017-03-11T14:36:02.429Z,1021.57
2017-03-11T14:37:02.453Z,1021.51
2017-03-11T14:38:02.484Z,1021.55
2017-03-11T14:39:02.515Z,1021.58
2017-03-11T14:40:02.541Z,1021.55
2017-03-11T14:41:02.575Z,1021.57
2017-03-11T14:42:02.609Z,1021.52
2017-03-11T14:43:02.622Z,1021.54
2017-03-11T14:44:02.664Z,1021.49
2017-03-11T14:45:02.696Z,1021.55
2017-03-11T14:46:02.728Z,1021.49
2017-03-11T14:47:02.758Z,1021.51
2017-03-11T14:48:02.786Z,1021.58
2017-03-11T14:49:02.815Z,1021.53
2017-03-11T14:50:02.834Z,1021.49
2017-03-11T14:51:02.877Z,1021.51
2017-03-11T14:52:02.905Z,1021.53
2017-03-11T14:53:02.939Z,1021.54
2017-03-11T14:54:02.968Z,1021.51
2017-03-11T14:55:03.000Z,1021.5
2017-03-11T14:56:03.029Z,1021.48
2017-03-11T14:57:03.056Z,1021.49
2017-03-11T14:58:03.089Z,1021.46
2017-03-11T14:59:03.120Z,1021.47
2017-03-11T15:00:03.148Z,1021.46
2017-03-11T15:01:03.180Z,1021.45
2017-03-11T15:02:03.210Z,1021.43
2017-03-11T15:03:03.239Z,1021.41
2017-03-11T15:04:03.270Z,1021.42
2017-03-11T15:05:03.297Z,1021.44
2017-03-11T15:06:03.332Z,1021.44
2017-03-11T15:07:03.360Z,1021.46
2017-03-11T15:08:03.390Z,1021.41
2017-03-11T15:09:03.420Z,1021.45
2017-03-11T15:10:03.449Z,1021.38
2017-03-11T15:11:03.479Z,1021.39
2017-03-11T15:12:03.515Z,1021.37
2017-03-11T15:13:03.541Z,1021.41
2017-03-11T15:14:03.569Z,1021.37
2017-03-11T15:15:03.597Z,1021.42
2017-03-11T15:16:03.635Z,1021.46
2017-03-11T15:17:03.663Z,1021.4
2017-03-11T15:18:03.692Z,1021.39
2017-03-11T15:19:03.721Z,1021.42
2017-03-11T15:20:03.758Z,1021.41
2017-03-11T15:21:03.783Z,1021.44
2017-03-11T15:22:03.813Z,1021.42
2017-03-11T15:23:03.839Z,1021.46
2017-03-11T15:24:03.872Z,1021.47
2017-03-11T15:25:03.906Z,1021.5
2017-03-11T15:26:03.951Z,1021.42
2017-03-11T15:27:03.981Z,1021.39
2017-03-11T15:28:04.013Z,1021.46
2017-03-11T15:29:04.040Z,1021.45
2017-03-11T15:30:04.067Z,1021.44
2017-03-11T15:31:04.078Z,1021.47
2017-03-11T15:32:04.107Z,1021.49
2017-03-11T15:33:04.143Z,1021.54
2017-03-11T15:34:04.172Z,1021.5
2017-03-11T15:35:04.210Z,1021.51
2017-03-11T15:36:04.231Z,1021.52
2017-03-11T15:37:04.259Z,1021.5
2017-03-11T15:38:04.287Z,1021.47
2017-03-11T15:39:04.322Z,1021.53
2017-03-11T15:40:04.345Z,1021.49
2017-03-11T15:41:04.381Z,1021.42
2017-03-11T15:42:04.407Z,1021.47
2017-03-11T15:43:04.440Z,1021.46
2017-03-11T15:44:04.470Z,1021.48
2017-03-11T15:45:04.698Z,1021.44
2017-03-11T15:46:04.528Z,1021.48
2017-03-11T15:47:04.555Z,1021.48
2017-03-11T15:48:04.588Z,1021.48
2017-03-11T15:49:04.613Z,1021.5
2017-03-11T15:50:04.655Z,1021.42
2017-03-11T15:51:04.678Z,1021.46
2017-03-11T15:52:04.706Z,1021.47
2017-03-11T15:53:04.734Z,1021.44
2017-03-11T15:54:04.764Z,1021.51
2017-03-11T15:55:04.800Z,1021.53
2017-03-11T15:56:04.823Z,1021.52
2017-03-11T15:57:04.854Z,1021.51
2017-03-11T15:59:04.913Z,1021.5
2017-03-11T16:00:04.940Z,1021.53
2017-03-11T16:01:04.972Z,1021.51
2017-03-11T16:02:05.002Z,1021.48
2017-03-11T16:03:05.035Z,1021.54
2017-03-11T16:04:05.062Z,1021.57
2017-03-11T16:05:05.086Z,1021.6
2017-03-11T16:06:05.146Z,1021.53
2017-03-11T16:07:05.153Z,1021.53
2017-03-11T16:08:05.178Z,1021.53
2017-03-11T16:09:05.211Z,1021.49
2017-03-11T16:10:05.241Z,1021.57
2017-03-11T16:11:05.274Z,1021.49
2017-03-11T16:12:05.307Z,1021.5
2017-03-11T16:13:05.328Z,1021.52
2017-03-11T16:14:05.356Z,1021.58
2017-03-11T16:15:05.388Z,1021.56
2017-03-11T16:16:05.417Z,1021.53
2017-03-11T16:17:05.448Z,1021.51
2017-03-11T16:18:05.481Z,1021.51
2017-03-11T16:19:05.510Z,1021.47
2017-03-11T16:20:05.537Z,1021.51
2017-03-11T16:21:05.573Z,1021.53
2017-03-11T16:22:05.601Z,1021.52
2017-03-11T16:23:05.626Z,1021.5
2017-03-11T16:24:05.655Z,1021.48
2017-03-11T16:25:05.687Z,1021.47
2017-03-11T16:26:06.091Z,1021.46
2017-03-11T16:27:06.118Z,1021.46
2017-03-11T16:28:06.148Z,1021.45
2017-03-11T16:29:06.179Z,1021.46
2017-03-11T16:30:06.206Z,1021.43
2017-03-11T16:31:06.236Z,1021.43
2017-03-11T16:32:06.265Z,1021.45
2017-03-11T16:33:06.283Z,1021.44
2017-03-11T16:34:06.323Z,1021.44
2017-03-11T16:35:06.370Z,1021.41
2017-03-11T16:36:06.385Z,1021.45
2017-03-11T16:37:06.416Z,1021.44
2017-03-11T16:38:06.443Z,1021.45
2017-03-11T16:39:06.475Z,1021.41
2017-03-11T16:40:06.508Z,1021.43
2017-03-11T16:41:06.533Z,1021.45
2017-03-11T16:42:06.560Z,1021.42
2017-03-11T16:43:06.589Z,1021.42
2017-03-11T16:44:06.622Z,1021.45
2017-03-11T16:45:06.649Z,1021.48
2017-03-11T16:46:06.783Z,1021.43
2017-03-11T16:47:06.710Z,1021.44
2017-03-11T16:48:06.726Z,1021.46
2017-03-11T16:49:06.772Z,1021.41
2017-03-11T16:50:06.803Z,1021.49
2017-03-11T16:51:06.826Z,1021.46
2017-03-11T16:52:06.858Z,1021.5
2017-03-11T16:53:06.885Z,1021.43
2017-03-11T16:54:06.916Z,1021.5
2017-03-11T16:55:06.934Z,1021.53
